TimeEDT,TemperatureF,Dew PointF,Humidity,Sea Level PressureIn,VisibilityMPH,Wind Direction,Wind SpeedMPH,Gust SpeedMPH,PrecipitationIn,Events,Conditions,WindDirDegrees,DateUTC
12:53 AM,73.0,69.1,87,30.17,10.0,South,3.5,-,N/A,,Clear,190,2013-07-06 04:53:00
1:53 AM,73.9,69.1,85,30.18,10.0,Calm,Calm,-,N/A,,Partly Cloudy,0,2013-07-06 05:53:00
2:22 AM,73.4,69.8,88,30.21,10.0,Calm,Calm,-,N/A,,Mostly Cloudy,0,2013-07-06 06:22:00
2:49 AM,73.4,69.8,88,30.21,10.0,Calm,Calm,-,N/A,,Scattered Clouds,0,2013-07-06 06:49:00
2:53 AM,72.0,69.1,91,30.18,10.0,Calm,Calm,-,N/A,,Partly Cloudy,0,2013-07-06 06:53:00
3:53 AM,71.1,68.0,90,30.18,10.0,Calm,Calm,-,N/A,,Mostly Cloudy,0,2013-07-06 07:53:00
4:53 AM,70.0,68.0,93,30.19,10.0,South,3.5,-,N/A,,Clear,180,2013-07-06 08:53:00
5:53 AM,69.1,66.9,93,30.19,10.0,Calm,Calm,-,N/A,,Clear,0,2013-07-06 09:53:00
6:53 AM,71.1,66.9,87,30.19,10.0,Calm,Calm,-,N/A,,Clear,0,2013-07-06 10:53:00
7:53 AM,73.9,68.0,82,30.20,10.0,Calm,Calm,-,N/A,,Clear,0,2013-07-06 11:53:00
8:53 AM,77.0,66.9,71,30.20,10.0,South,4.6,-,N/A,,Clear,190,2013-07-06 12:53:00
9:53 AM,79.0,66.9,66,30.19,10.0,Variable,3.5,-,N/A,,Clear,0,2013-07-06 13:53:00
10:53 AM,82.0,66.9,60,30.19,10.0,South,4.6,-,N/A,,Partly Cloudy,190,2013-07-06 14:53:00
11:53 AM,84.0,66.0,55,30.17,10.0,SSW,4.6,-,N/A,,Scattered Clouds,210,2013-07-06 15:53:00
12:53 PM,86.0,64.9,49,30.15,10.0,Calm,Calm,-,N/A,,Scattered Clouds,0,2013-07-06 16:53:00
1:53 PM,87.1,66.0,49,30.13,10.0,Variable,5.8,-,N/A,,Scattered Clouds,0,2013-07-06 17:53:00
2:53 PM,88.0,64.9,46,30.10,10.0,South,4.6,-,N/A,,Partly Cloudy,180,2013-07-06 18:53:00
3:53 PM,91.0,66.0,44,30.08,10.0,Variable,5.8,-,N/A,,Partly Cloudy,0,2013-07-06 19:53:00
4:53 PM,88.0,66.0,48,30.06,10.0,Variable,3.5,-,N/A,,Partly Cloudy,0,2013-07-06 20:53:00
5:53 PM,89.1,66.9,48,30.05,10.0,WSW,5.8,-,N/A,,Clear,250,2013-07-06 21:53:00
6:53 PM,88.0,66.9,49,30.04,10.0,SSW,4.6,-,N/A,,Clear,210,2013-07-06 22:53:00
7:53 PM,86.0,66.9,53,30.05,10.0,Calm,Calm,-,N/A,,Clear,0,2013-07-06 23:53:00
8:53 PM,82.0,69.1,65,30.06,10.0,Calm,Calm,-,N/A,,Clear,0,2013-07-07 00:53:00
9:53 PM,80.1,70.0,71,30.09,10.0,Calm,Calm,-,N/A,,Clear,0,2013-07-07 01:53:00
10:53 PM,78.1,69.1,74,30.11,10.0,SSW,3.5,-,N/A,,Clear,200,2013-07-07 02:53:00
11:53 PM,78.1,69.1,74,30.13,10.0,SSW,4.6,-,N/A,,Clear,210,2013-07-07 03:53:00